Time;durP1;ratioP1;P1;durP2;ratioP2;P2;SDS_P1;SDS_P2;PMS_P1;PMS_P2;Temp;Humidity;BMP_temperature;BMP_pressure;BME280_temperature;BME280_humidity;BME280_pressure;Samples;Min_cycle;Max_cycle;Signal;HPM_P1;HPM_P2
2022/01/24 00:01:49;;;;;;;4.18;1.83;;;;;;;7.87;100.00;102805.56;4977677;28;20033;-73
2022/01/24 00:04:14;;;;;;;4.00;2.00;;;;;;;7.80;100.00;102805.88;4987409;28;20110;-73
2022/01/24 00:06:40;;;;;;;8.15;3.42;;;;;;;7.82;100.00;102816.34;4982467;28;20621;-72
2022/01/24 00:09:07;;;;;;;5.30;2.72;;;;;;;7.82;100.00;102805.59;4983214;28;20049;-73
2022/01/24 00:11:46;;;;;;;5.18;2.17;;;;;;;7.82;100.00;102808.28;4968123;28;20532;-73
2022/01/24 00:17:00;;;;;;;4.18;2.35;;;;;;;7.79;100.00;102808.84;4967732;28;20057;-73
2022/01/24 00:27:23;;;;;;;6.28;2.35;;;;;;;8.02;100.00;102794.66;4963179;28;20042;-73
2022/01/24 00:29:48;;;;;;;3.65;2.53;;;;;;;7.97;100.00;102800.91;4978078;28;20037;-73
2022/01/24 00:32:14;;;;;;;3.55;1.77;;;;;;;8.00;100.00;102807.56;4967079;28;20760;-73
2022/01/24 00:34:40;;;;;;;7.50;2.30;;;;;;;8.12;100.00;102791.88;4977497;28;20038;-73
2022/01/24 00:37:06;;;;;;;3.65;1.98;;;;;;;8.05;100.00;102794.09;4960240;28;20038;-73
2022/01/24 00:39:31;;;;;;;4.03;2.05;;;;;;;8.15;100.00;102791.28;4966098;28;20080;-72
2022/01/24 00:47:29;;;;;;;4.18;2.35;;;;;;;7.83;100.00;102793.78;4978076;28;20129;-73
2022/01/24 00:55:21;;;;;;;5.15;2.22;;;;;;;7.74;100.00;102795.50;4972985;28;20122;-73
2022/01/24 00:57:46;;;;;;;5.53;1.95;;;;;;;7.73;100.00;102791.19;4982379;28;20849;-72
2022/01/24 01:00:13;;;;;;;3.50;2.55;;;;;;;7.72;100.00;102792.28;4972051;28;20113;-73
2022/01/24 01:02:39;;;;;;;4.55;2.33;;;;;;;7.75;100.00;102783.66;4976121;28;20034;-73
2022/01/24 01:08:13;;;;;;;3.63;1.98;;;;;;;7.90;100.00;102791.56;4970047;28;20538;-73
2022/01/24 01:19:07;;;;;;;4.20;1.98;;;;;;;7.73;100.00;102786.63;4973090;28;20049;-73
2022/01/24 01:21:33;;;;;;;5.68;2.63;;;;;;;7.76;100.00;102793.31;4974973;28;20035;-74
2022/01/24 01:24:00;;;;;;;5.18;1.88;;;;;;;7.69;100.00;102788.28;4967374;28;20034;-73
2022/01/24 01:28:59;;;;;;;3.58;1.95;;;;;;;7.75;100.00;102792.53;4981753;28;20450;-74
2022/01/24 01:34:21;;;;;;;4.25;2.25;;;;;;;7.65;100.00;102786.44;4977864;28;20045;-71
2022/01/24 01:57:52;;;;;;;;;;;;;;;7.57;100.00;102789.75;4977119;28;20043;-72
2022/01/24 02:00:18;;;;;;;3.60;1.38;;;;;;;7.67;100.00;102792.31;4949303;28;19924;-72
2022/01/24 02:02:43;;;;;;;2.78;1.63;;;;;;;7.68;100.00;102797.41;4974712;28;20153;-72
2022/01/24 02:05:09;;;;;;;3.40;1.85;;;;;;;7.59;100.00;102793.72;4953898;28;20554;-72
2022/01/24 02:07:45;;;;;;;2.83;1.85;;;;;;;7.75;100.00;102789.03;4964583;28;20042;-72
2022/01/24 02:10:11;;;;;;;3.72;1.73;;;;;;;7.68;100.00;102789.38;4979446;28;20573;-73
2022/01/24 02:12:36;;;;;;;2.72;1.55;;;;;;;7.73;100.00;102781.28;4961767;28;20022;-72
2022/01/24 02:15:02;;;;;;;4.35;2.05;;;;;;;7.88;100.00;102783.00;4974736;28;20042;-72
2022/01/24 02:17:44;;;;;;;3.53;2.15;;;;;;;7.84;100.00;102776.63;4972087;28;20659;-72
2022/01/24 02:20:37;;;;;;;4.65;1.92;;;;;;;7.66;100.00;102780.81;4963384;28;20481;-72
2022/01/24 02:25:42;;;;;;;6.78;2.22;;;;;;;7.54;100.00;102790.28;4965189;28;20078;-72
2022/01/24 02:28:11;;;;;;;5.68;2.10;;;;;;;7.59;100.00;102782.22;4979633;28;20065;-73
2022/01/24 02:33:09;;;;;;;7.70;2.22;;;;;;;7.57;100.00;102792.44;4978830;28;20042;-72
2022/01/24 02:35:35;;;;;;;5.18;2.15;;;;;;;7.51;100.00;102794.31;4951012;28;20046;-72
2022/01/24 02:38:04;;;;;;;6.40;2.50;;;;;;;7.42;100.00;102792.53;4966350;28;20041;-72
2022/01/24 02:40:30;;;;;;;6.53;2.13;;;;;;;7.48;100.00;102791.41;4979565;28;20042;-73
2022/01/24 02:48:27;;;;;;;5.60;2.25;;;;;;;7.86;100.00;102785.16;4974812;28;20143;-72
2022/01/24 02:53:38;;;;;;;4.90;2.10;;;;;;;7.59;100.00;102787.59;4959584;28;20117;-72
2022/01/24 02:56:04;;;;;;;6.57;3.28;;;;;;;7.68;100.00;102777.84;4979057;28;20423;-72
2022/01/24 02:58:30;;;;;;;4.97;2.50;;;;;;;7.54;100.00;102790.28;4975754;28;20751;-72
2022/01/24 03:00:56;;;;;;;8.30;2.83;;;;;;;7.48;100.00;102786.06;4977461;28;20113;-72
2022/01/24 03:03:22;;;;;;;4.43;2.33;;;;;;;7.65;100.00;102781.88;4975883;28;20034;-72
2022/01/24 03:05:48;;;;;;;4.55;2.03;;;;;;;7.64;100.00;102782.16;4962799;28;20494;-72
2022/01/24 03:08:14;;;;;;;5.10;2.58;;;;;;;7.78;100.00;102781.22;4962821;28;20081;-73
2022/01/24 03:10:44;;;;;;;4.13;2.03;;;;;;;7.79;100.00;102768.63;4960787;28;20038;-72
2022/01/24 03:15:50;;;;;;;7.90;2.20;;;;;;;7.49;100.00;102763.53;4977111;28;20109;-72
2022/01/24 03:18:17;;;;;;;6.82;2.58;;;;;;;7.46;100.00;102764.09;4978585;28;20050;-73
2022/01/24 03:20:43;;;;;;;5.75;2.28;;;;;;;7.62;100.00;102766.38;4977381;28;20057;-72
2022/01/24 03:23:14;;;;;;;9.27;2.88;;;;;;;7.49;100.00;102766.22;4976477;28;20052;-72
2022/01/24 03:25:39;;;;;;;4.90;2.75;;;;;;;7.44;100.00;102764.38;4969371;28;20486;-72
2022/01/24 03:28:05;;;;;;;4.78;2.05;;;;;;;7.59;100.00;102771.50;4963381;28;20084;-72
2022/01/24 03:30:32;;;;;;;5.40;2.20;;;;;;;7.55;100.00;102773.91;4983718;28;20046;-72
2022/01/24 03:32:59;;;;;;;4.38;2.47;;;;;;;7.49;100.00;102771.59;4974582;28;20064;-72
2022/01/24 03:35:24;;;;;;;4.40;2.83;;;;;;;7.45;100.00;102763.31;4974537;28;20042;-72
2022/01/24 03:37:50;;;;;;;5.28;2.22;;;;;;;7.40;100.00;102766.03;4975574;28;20047;-73
2022/01/24 03:40:15;;;;;;;6.45;2.67;;;;;;;7.47;100.00;102769.16;4971179;28;20037;-72
2022/01/24 03:42:41;;;;;;;6.30;2.90;;;;;;;7.52;100.00;102774.50;4978053;28;20038;-72
2022/01/24 03:45:09;;;;;;;4.32;2.10;;;;;;;7.43;100.00;102772.72;4979242;28;21009;-73
2022/01/24 03:50:05;;;;;;;5.78;2.45;;;;;;;7.43;100.00;102778.06;4981135;28;20046;-72
2022/01/24 03:52:31;;;;;;;6.60;2.33;;;;;;;7.56;100.00;102770.19;4967158;28;20034;-73
2022/01/24 03:54:57;;;;;;;5.57;2.30;;;;;;;7.52;100.00;102777.19;4966533;28;20035;-72
2022/01/24 03:57:24;;;;;;;4.80;2.75;;;;;;;7.43;100.00;102772.72;4965873;28;20034;-72
2022/01/24 03:59:49;;;;;;;5.70;2.80;;;;;;;7.40;100.00;102767.88;4971730;28;20650;-72
2022/01/24 04:02:17;;;;;;;7.80;2.78;;;;;;;7.39;100.00;102768.97;4972278;28;20113;-73
2022/01/24 04:04:42;;;;;;;7.50;2.47;;;;;;;7.44;100.00;102768.94;4981744;28;20034;-73
2022/01/24 04:07:08;;;;;;;5.32;2.42;;;;;;;7.69;100.00;102768.69;4967699;28;20038;-72
2022/01/24 04:09:35;;;;;;;4.57;2.28;;;;;;;7.54;100.00;102779.56;4957836;28;20399;-72
2022/01/24 04:12:02;;;;;;;6.28;2.33;;;;;;;7.35;100.00;102776.78;4982185;28;20042;-72
2022/01/24 04:22:34;;;;;;;4.30;1.98;;;;;;;7.27;100.00;102783.56;4970520;28;20042;-72
2022/01/24 04:25:03;;;;;;;4.60;2.33;;;;;;;7.34;100.00;102779.75;4964456;28;20073;-72
2022/01/24 04:27:30;;;;;;;5.45;1.98;;;;;;;7.14;100.00;102770.75;4963386;28;20058;-72
2022/01/24 04:29:56;;;;;;;4.43;1.77;;;;;;;7.19;100.00;102773.44;4962540;28;20130;-72
2022/01/24 04:32:22;;;;;;;4.88;2.25;;;;;;;7.27;100.00;102772.84;4969837;28;20050;-72
2022/01/24 04:34:48;;;;;;;4.20;1.83;;;;;;;7.17;100.00;102772.09;4967476;28;20046;-72
2022/01/24 04:37:14;;;;;;;2.65;1.60;;;;;;;7.35;100.00;102774.13;4966906;28;20038;-72
2022/01/24 04:39:39;;;;;;;3.42;1.48;;;;;;;7.26;100.00;102763.19;4961925;28;20081;-72
2022/01/24 04:42:13;;;;;;;3.97;1.98;;;;;;;7.10;100.00;102768.94;4961359;28;20038;-72
2022/01/24 04:55:03;;;;;;;4.60;2.10;;;;;;;7.25;100.00;102766.16;4981602;28;20066;-72
2022/01/24 04:57:29;;;;;;;2.60;1.33;;;;;;;7.19;100.00;102765.38;4981249;28;20226;-72
2022/01/24 04:59:57;;;;;;;3.65;1.70;;;;;;;7.20;100.00;102761.63;4982120;22;20047;-70
2022/01/24 05:02:24;;;;;;;3.28;1.45;;;;;;;7.27;100.00;102762.13;4938952;28;20027;-70
2022/01/24 05:04:52;;;;;;;4.43;1.65;;;;;;;7.18;100.00;102766.44;4923755;29;20074;-69
2022/01/24 05:07:17;;;;;;;2.85;1.27;;;;;;;7.17;100.00;102772.91;4942178;28;21018;-70
2022/01/24 05:09:49;;;;;;;5.20;1.80;;;;;;;7.09;100.00;102768.13;4933622;28;20036;-70
2022/01/24 05:25:41;;;;;;;6.60;1.52;;;;;;;7.02;100.00;102762.31;4939911;28;20039;-70
2022/01/24 05:28:06;;;;;;;4.03;2.40;;;;;;;7.04;100.00;102773.53;4941174;28;20403;-68
2022/01/24 05:30:32;;;;;;;3.53;1.83;;;;;;;7.02;100.00;102772.22;4942789;28;20054;-69
2022/01/24 05:32:57;;;;;;;5.57;2.70;;;;;;;7.11;100.00;102783.91;4941681;29;20100;-69
2022/01/24 05:35:23;;;;;;;6.75;2.17;;;;;;;7.10;100.00;102775.06;4938580;29;20873;-68
2022/01/24 05:37:48;;;;;;;4.15;1.63;;;;;;;7.05;100.00;102775.13;4938019;28;20089;-69
2022/01/24 05:40:14;;;;;;;6.65;2.13;;;;;;;7.05;100.00;102775.13;4940821;28;20041;-69
2022/01/24 05:42:39;;;;;;;5.18;2.28;;;;;;;7.05;100.00;102777.00;4942133;28;20114;-69
2022/01/24 05:45:06;;;;;;;6.05;2.10;;;;;;;7.06;100.00;102776.75;4938812;28;20043;-69
2022/01/24 05:47:32;;;;;;;5.72;2.58;;;;;;;7.24;100.00;102781.41;4938757;28;20034;-67
2022/01/24 05:49:57;;;;;;;6.57;2.65;;;;;;;7.08;100.00;102782.59;4939606;29;20030;-68
2022/01/24 05:52:23;;;;;;;7.72;2.45;;;;;;;7.07;100.00;102786.34;4940401;28;20039;-69
2022/01/24 05:54:48;;;;;;;5.55;2.50;;;;;;;7.13;100.00;102792.47;4936431;28;20109;-69
2022/01/24 05:57:14;;;;;;;8.57;3.28;;;;;;;7.12;100.00;102777.50;4939047;28;20102;-68
2022/01/24 05:59:39;;;;;;;9.43;3.67;;;;;;;7.12;100.00;102791.69;4936326;28;20031;-68
2022/01/24 06:02:05;;;;;;;9.63;3.35;;;;;;;7.04;100.00;102783.44;4936489;28;20050;-69
2022/01/24 06:04:31;;;;;;;10.02;3.78;;;;;;;7.12;100.00;102780.97;4939701;29;20039;-69
2022/01/24 06:06:57;;;;;;;13.20;3.90;;;;;;;7.01;100.00;102795.50;4935516;28;20032;-69
2022/01/24 06:09:22;;;;;;;9.55;4.32;;;;;;;7.26;100.00;102794.53;4939866;28;20041;-70
2022/01/24 06:11:49;;;;;;;10.93;3.83;;;;;;;7.21;100.00;102794.56;4954883;28;20031;-68
2022/01/24 06:14:14;;;;;;;10.55;4.30;;;;;;;7.13;100.00;102800.53;4954153;28;20039;-70
2022/01/24 06:16:40;;;;;;;16.55;5.40;;;;;;;7.10;100.00;102790.38;4941280;28;20062;-69
2022/01/24 06:19:06;;;;;;;13.93;5.50;;;;;;;7.26;100.00;102781.13;4932390;28;20039;-70
2022/01/24 06:21:32;;;;;;;11.20;4.35;;;;;;;7.21;100.00;102790.03;4933084;28;20042;-69
2022/01/24 06:23:57;;;;;;;11.13;4.68;;;;;;;7.30;100.00;102790.22;4939558;28;20043;-70
2022/01/24 06:26:23;;;;;;;13.52;5.22;;;;;;;7.33;100.00;102795.03;4936947;28;20918;-69
2022/01/24 06:28:48;;;;;;;17.02;4.93;;;;;;;7.15;100.00;102793.81;4935350;28;20035;-69
2022/01/24 06:31:14;;;;;;;13.15;4.70;;;;;;;6.96;100.00;102800.09;4937061;28;20456;-69
2022/01/24 06:33:40;;;;;;;11.00;4.32;;;;;;;6.96;100.00;102797.41;4938738;29;20265;-69
2022/01/24 06:36:06;;;;;;;10.73;4.20;;;;;;;7.22;100.00;102793.47;4944799;28;20050;-69
2022/01/24 06:38:31;;;;;;;8.93;4.07;;;;;;;7.10;100.00;102795.72;4929729;29;20110;-69
2022/01/24 06:40:57;;;;;;;11.75;4.03;;;;;;;7.35;100.00;102798.22;4931248;28;20031;-67
2022/01/24 06:43:22;;;;;;;11.63;3.78;;;;;;;7.17;100.00;102797.00;4941295;28;20668;-70
2022/01/24 06:45:47;;;;;;;14.73;4.65;;;;;;;7.08;100.00;102800.56;4938873;29;20166;-69
2022/01/24 06:48:13;;;;;;;12.25;4.35;;;;;;;6.97;100.00;102799.81;4939726;28;20058;-67
2022/01/24 06:50:39;;;;;;;9.40;3.85;;;;;;;7.07;100.00;102797.06;4940085;28;20070;-70
2022/01/24 06:53:04;;;;;;;13.90;4.63;;;;;;;7.01;100.00;102786.66;4939656;28;20153;-69
2022/01/24 06:55:30;;;;;;;12.65;4.75;;;;;;;6.91;100.00;102795.56;4937756;28;20066;-69
2022/01/24 06:57:56;;;;;;;8.80;3.60;;;;;;;6.80;100.00;102794.03;4942244;28;20039;-67
2022/01/24 07:00:25;;;;;;;11.85;4.50;;;;;;;6.81;100.00;102792.97;4939152;28;20045;-68
2022/01/24 07:02:55;;;;;;;11.68;4.32;;;;;;;6.96;100.00;102800.91;4936878;28;20043;-69
2022/01/24 07:05:21;;;;;;;12.48;4.65;;;;;;;7.02;100.00;102790.97;4935658;28;20608;-69
2022/01/24 07:07:47;;;;;;;11.82;3.63;;;;;;;6.99;100.00;102794.16;4942242;28;20043;-70
2022/01/24 07:10:12;;;;;;;13.48;4.97;;;;;;;6.88;100.00;102790.78;4927280;29;20058;-69
2022/01/24 07:12:38;;;;;;;14.05;4.65;;;;;;;6.89;100.00;102783.53;4943378;28;20054;-68
2022/01/24 07:15:09;;;;;;;14.52;4.78;;;;;;;6.87;100.00;102785.69;4943408;29;20086;-71
2022/01/24 07:20:20;;;;;;;12.75;4.07;;;;;;;7.14;100.00;102792.19;4903600;29;20511;-69
2022/01/24 07:22:46;;;;;;;10.27;3.97;;;;;;;7.04;100.00;102781.56;4942081;28;20050;-70
2022/01/24 07:25:11;;;;;;;10.95;4.00;;;;;;;7.02;100.00;102789.09;4946417;28;20447;-70
2022/01/24 07:27:37;;;;;;;7.80;3.13;;;;;;;7.00;100.00;102788.56;4941055;28;20216;-69
2022/01/24 07:30:04;;;;;;;9.20;3.20;;;;;;;7.00;100.00;102788.56;4943062;28;20061;-71
2022/01/24 07:32:30;;;;;;;11.52;3.85;;;;;;;7.15;100.00;102793.00;4935141;29;20071;-70
2022/01/24 07:34:56;;;;;;;10.20;3.78;;;;;;;7.00;100.00;102790.44;4936921;28;20039;-70
2022/01/24 07:37:22;;;;;;;12.48;4.65;;;;;;;7.03;100.00;102792.53;4932312;28;20058;-68
2022/01/24 07:39:49;;;;;;;10.90;4.38;;;;;;;6.93;100.00;102801.44;4941613;28;20389;-69
2022/01/24 07:42:17;;;;;;;12.02;4.05;;;;;;;7.00;100.00;102793.09;4924656;29;20035;-67
2022/01/24 07:44:43;;;;;;;12.32;3.65;;;;;;;6.94;100.00;102802.25;4937703;29;20047;-70
2022/01/24 07:47:08;;;;;;;11.75;4.65;;;;;;;6.88;100.00;102798.00;4941937;28;20039;-71
2022/01/24 07:49:35;;;;;;;10.98;4.13;;;;;;;6.88;100.00;102798.81;4942061;28;20031;-68
2022/01/24 07:52:00;;;;;;;14.13;4.20;;;;;;;6.85;100.00;102798.56;4944237;28;20046;-70
2022/01/24 07:54:26;;;;;;;8.60;3.95;;;;;;;6.84;100.00;102795.06;4940895;28;20027;-70
2022/01/24 07:56:51;;;;;;;11.52;4.53;;;;;;;6.90;100.00;102802.00;4928049;28;20050;-70
2022/01/24 07:59:17;;;;;;;8.52;3.70;;;;;;;6.95;100.00;102793.94;4943220;28;20035;-71
2022/01/24 08:01:42;;;;;;;10.55;3.15;;;;;;;7.09;100.00;102792.25;4940248;28;20069;-70
2022/01/24 08:04:08;;;;;;;12.05;3.88;;;;;;;7.23;100.00;102792.41;4940891;29;20058;-69
2022/01/24 08:06:34;;;;;;;11.25;4.13;;;;;;;7.11;100.00;102789.28;4935480;28;20043;-70
2022/01/24 08:09:00;;;;;;;15.68;4.65;;;;;;;7.11;100.00;102791.97;4928264;28;20074;-71
2022/01/24 08:11:25;;;;;;;14.73;4.35;;;;;;;6.94;100.00;102791.53;4928938;28;20059;-72
2022/01/24 08:13:52;;;;;;;14.75;4.80;;;;;;;6.86;100.00;102792.13;4939823;28;20480;-71
2022/01/24 08:16:17;;;;;;;14.73;4.07;;;;;;;6.83;100.00;102792.69;4948903;28;20111;-71
2022/01/24 08:18:43;;;;;;;8.60;4.22;;;;;;;6.87;100.00;102786.47;4942347;28;20035;-71
2022/01/24 08:21:09;;;;;;;11.77;3.90;;;;;;;6.89;100.00;102797.72;4937038;28;20043;-70
2022/01/24 08:23:34;;;;;;;14.38;4.28;;;;;;;6.95;100.00;102798.50;4937990;28;20031;-68
2022/01/24 08:26:00;;;;;;;14.73;4.50;;;;;;;6.88;100.00;102796.13;4937316;28;21042;-69
2022/01/24 08:28:25;;;;;;;12.75;3.65;;;;;;;6.90;100.00;102791.28;4937618;28;20081;-71
2022/01/24 08:30:53;;;;;;;9.63;4.68;;;;;;;6.93;100.00;102790.72;4939823;28;20053;-70
2022/01/24 08:33:19;;;;;;;12.10;4.32;;;;;;;6.96;100.00;102790.19;4940204;28;20567;-71
2022/01/24 08:35:44;;;;;;;14.80;4.72;;;;;;;6.91;100.00;102794.78;4930893;28;20134;-71
2022/01/24 08:38:10;;;;;;;11.82;4.32;;;;;;;6.90;100.00;102785.13;4940342;28;20118;-71
2022/01/24 08:40:38;;;;;;;19.02;5.43;;;;;;;6.83;100.00;102792.69;4938766;29;20066;-71
2022/01/24 08:43:06;;;;;;;17.83;5.55;;;;;;;7.06;100.00;102792.81;4938020;28;20055;-70
2022/01/24 08:45:58;;;;;;;14.90;5.07;;;;;;;7.23;98.96;102792.41;4941661;29;20491;-71
2022/01/24 08:48:24;;;;;;;17.23;4.45;;;;;;;7.16;98.66;102797.31;4939318;28;20063;-70
2022/01/24 08:50:55;;;;;;;13.93;4.97;;;;;;;7.02;99.55;102793.63;4921949;29;20039;-71
2022/01/24 08:53:21;;;;;;;15.55;5.00;;;;;;;7.17;99.05;102790.84;4917824;28;20046;-70
2022/01/24 08:55:47;;;;;;;13.75;5.47;;;;;;;7.08;99.26;102789.84;4933584;28;21049;-70
2022/01/24 08:58:14;;;;;;;12.70;4.57;;;;;;;7.17;98.46;102793.53;4942631;28;20039;-70
2022/01/24 09:00:42;;;;;;;15.98;4.50;;;;;;;7.02;99.45;102789.09;4918724;29;20106;-70
2022/01/24 09:03:08;;;;;;;17.05;5.55;;;;;;;7.01;99.52;102790.16;4936218;28;20051;-69
2022/01/24 09:05:35;;;;;;;14.02;4.88;;;;;;;6.95;99.06;102785.13;4937489;28;20040;-70
2022/01/24 09:08:03;;;;;;;17.13;5.18;;;;;;;6.94;98.37;102784.31;4938616;28;20050;-70
2022/01/24 09:10:28;;;;;;;11.57;5.05;;;;;;;7.08;97.78;102787.94;4940338;28;20487;-71
2022/01/24 09:12:54;;;;;;;14.77;4.55;;;;;;;6.94;97.79;102776.28;4936192;28;20149;-70
2022/01/24 09:15:19;;;;;;;11.25;5.72;;;;;;;7.01;97.75;102784.78;4939183;28;20031;-71
2022/01/24 09:17:45;;;;;;;14.10;5.18;;;;;;;6.95;97.55;102777.09;4922113;29;20515;-69
2022/01/24 09:20:12;;;;;;;9.35;4.07;;;;;;;6.93;97.56;102773.88;4938004;28;20050;-71
2022/01/24 09:22:38;;;;;;;20.00;5.82;;;;;;;7.16;96.04;102786.59;4937184;28;20042;-71
2022/01/24 09:25:05;;;;;;;24.23;6.88;;;;;;;6.99;96.58;102781.59;4940169;29;20486;-70
2022/01/24 09:27:30;;;;;;;13.10;4.95;;;;;;;6.93;96.88;102785.38;4938773;28;20043;-71
2022/01/24 09:29:57;;;;;;;18.65;5.72;;;;;;;6.95;97.21;102785.91;4940425;28;20042;-71
2022/01/24 09:32:24;;;;;;;12.88;5.32;;;;;;;7.05;96.94;102798.41;4937424;29;20074;-70
2022/01/24 09:34:49;;;;;;;12.05;5.05;;;;;;;7.24;95.54;102794.81;4939630;28;20035;-70
2022/01/24 09:37:15;;;;;;;13.38;5.57;;;;;;;7.32;95.24;102788.84;4923273;29;20082;-70
2022/01/24 09:39:40;;;;;;;20.92;5.70;;;;;;;7.21;95.54;102787.34;4936554;28;20042;-70
2022/01/24 09:42:06;;;;;;;19.55;5.75;;;;;;;7.23;95.33;102784.38;4940639;28;20070;-69
2022/01/24 09:44:33;;;;;;;18.65;5.95;;;;;;;7.18;95.83;102784.44;4937181;29;20035;-70
2022/01/24 09:46:58;;;;;;;13.38;5.70;;;;;;;7.05;96.35;102785.84;4939433;28;20046;-71
2022/01/24 09:49:24;;;;;;;15.85;5.35;;;;;;;7.06;96.58;102773.25;4938003;28;20043;-69
2022/01/24 09:51:50;;;;;;;15.90;6.03;;;;;;;7.04;96.61;102781.56;4937919;28;20046;-70
2022/01/24 09:54:16;;;;;;;14.32;5.22;;;;;;;7.23;95.31;102784.38;4925040;29;20111;-70
2022/01/24 09:56:41;;;;;;;16.98;5.57;;;;;;;7.10;96.16;102779.66;4938100;28;20122;-69
2022/01/24 09:59:07;;;;;;;16.45;5.80;;;;;;;7.15;95.68;102783.09;4943434;28;20073;-70
2022/01/24 10:01:34;;;;;;;18.83;6.07;;;;;;;7.16;95.57;102779.31;4939617;28;20042;-70
2022/01/24 10:04:16;;;;;;;14.52;4.85;;;;;;;7.47;93.18;102773.75;4939985;28;20039;-70
2022/01/24 10:07:11;;;;;;;16.10;4.40;;;;;;;7.20;94.97;102782.28;4939900;28;20134;-70
2022/01/24 10:09:45;;;;;;;19.02;5.82;;;;;;;7.05;95.75;102783.16;4937832;28;20530;-69
2022/01/24 10:18:01;;;;;;;17.63;5.15;;;;;;;7.28;95.12;102782.47;4912893;29;20050;-69
2022/01/24 10:20:36;;;;;;;17.95;5.95;;;;;;;7.32;94.80;102788.06;4910179;29;20040;-69
2022/01/24 10:23:07;;;;;;;10.93;5.15;;;;;;;7.28;94.81;102784.31;4924104;28;20397;-69
2022/01/24 10:25:45;;;;;;;11.73;4.03;;;;;;;7.36;94.96;102774.88;4942019;28;20043;-70
2022/01/24 10:28:10;;;;;;;12.48;5.68;;;;;;;7.29;95.25;102785.94;4934580;28;20043;-70
2022/01/24 10:30:36;;;;;;;14.15;5.07;;;;;;;7.34;94.21;102771.72;4936120;28;20035;-68
2022/01/24 10:33:03;;;;;;;13.55;4.43;;;;;;;7.35;95.14;102775.97;4933379;29;20027;-69
2022/01/24 10:35:38;;;;;;;12.88;5.35;;;;;;;7.40;94.43;102783.97;4939743;28;20082;-70
2022/01/24 10:38:44;;;;;;;10.23;4.13;;;;;;;7.41;94.55;102785.59;4935174;28;20046;-69
2022/01/24 10:41:23;;;;;;;16.30;5.25;;;;;;;7.23;96.11;102766.44;4938268;28;20811;-71
2022/01/24 10:43:49;;;;;;;18.17;4.57;;;;;;;7.34;95.31;102769.03;4937618;28;20126;-70
2022/01/24 10:46:22;;;;;;;16.30;5.05;;;;;;;7.25;96.60;102769.63;4932921;28;20039;-70
2022/01/24 10:48:50;;;;;;;12.38;5.53;;;;;;;7.17;96.80;102764.88;4939308;28;20407;-70
2022/01/24 10:51:21;;;;;;;11.25;4.30;;;;;;;7.22;96.56;102758.66;4937912;29;20039;-69
2022/01/24 10:53:48;;;;;;;10.80;4.55;;;;;;;7.38;95.79;102760.13;4942299;28;20451;-71
2022/01/24 10:56:45;;;;;;;11.52;4.10;;;;;;;7.42;95.76;102765.72;4940936;28;20042;-70
2022/01/24 10:59:14;;;;;;;16.83;4.65;;;;;;;7.30;96.29;102761.53;4940759;28;20129;-70
2022/01/24 11:01:42;;;;;;;10.90;4.35;;;;;;;7.36;96.00;102766.84;4967968;22;20101;-71
2022/01/24 11:04:15;;;;;;;14.57;4.78;;;;;;;7.25;96.36;102766.16;4956615;28;20030;-71
2022/01/24 11:06:43;;;;;;;10.90;4.70;;;;;;;7.36;96.29;102750.78;4943325;28;20045;-71
2022/01/24 11:09:26;;;;;;;15.13;4.72;;;;;;;7.60;94.06;102752.44;4957324;28;20043;-72
2022/01/24 11:12:09;;;;;;;14.05;5.10;;;;;;;7.41;94.62;102748.88;4952770;28;20640;-73
2022/01/24 11:14:36;;;;;;;12.40;4.22;;;;;;;7.42;95.28;102749.66;4959592;28;20625;-73
2022/01/24 11:17:05;;;;;;;12.52;4.43;;;;;;;7.29;96.39;102751.91;4959509;28;20030;-73
2022/01/24 11:19:42;;;;;;;12.93;4.70;;;;;;;7.34;96.54;102747.59;4956629;28;20050;-71
2022/01/24 11:22:19;;;;;;;6.90;3.75;;;;;;;7.23;96.95;102741.50;4954030;28;20039;-71
2022/01/24 11:24:52;;;;;;;12.23;4.75;;;;;;;7.44;96.02;102740.25;4958630;28;20031;-73
2022/01/24 11:27:18;;;;;;;12.25;4.43;;;;;;;7.37;95.96;102741.66;4956504;28;20504;-71
2022/01/24 11:29:44;;;;;;;9.90;4.13;;;;;;;7.35;95.26;102739.28;4959421;28;20039;-73
2022/01/24 11:32:30;;;;;;;12.45;4.05;;;;;;;7.34;95.50;102739.56;4959607;28;20130;-72
2022/01/24 11:34:57;;;;;;;13.88;4.88;;;;;;;7.29;95.19;102738.53;4956707;28;20039;-71
2022/01/24 11:37:37;;;;;;;15.40;4.53;;;;;;;7.22;95.92;102739.91;4939675;28;20898;-72
2022/01/24 11:40:14;;;;;;;11.73;4.03;;;;;;;7.16;97.02;102738.38;4958246;28;20070;-71
2022/01/24 11:42:43;;;;;;;10.98;3.85;;;;;;;7.16;97.04;102727.66;4952950;28;20034;-71
2022/01/24 11:45:14;;;;;;;7.60;3.95;;;;;;;7.50;95.60;102732.97;4948220;28;20039;-71
2022/01/24 11:47:44;;;;;;;10.27;4.05;;;;;;;7.64;94.45;102733.91;4949681;28;20043;-71
2022/01/24 11:50:42;;;;;;;13.00;4.55;;;;;;;7.48;95.41;102733.25;4953382;28;20595;-72
2022/01/24 11:53:22;;;;;;;8.77;3.50;;;;;;;7.77;93.58;102743.97;4945422;28;20070;-71
2022/01/24 11:55:48;;;;;;;13.77;4.33;;;;;;;7.64;93.78;102737.41;4960459;28;20046;-71
2022/01/24 11:58:22;;;;;;;14.85;5.05;;;;;;;7.57;94.32;102741.50;4960569;28;20730;-71
2022/01/24 12:00:47;;;;;;;12.15;5.47;;;;;;;7.50;95.33;102738.31;4956667;28;20031;-71
2022/01/24 12:03:23;;;;;;;10.18;4.38;;;;;;;7.57;93.65;102736.91;4969549;28;20037;-71
2022/01/24 12:05:53;;;;;;;13.25;4.20;;;;;;;7.24;95.30;102727.00;4949229;28;20063;-72
2022/01/24 12:08:29;;;;;;;8.65;3.60;;;;;;;7.31;95.62;102732.88;4950295;28;20377;-72
2022/01/24 12:11:09;;;;;;;13.27;5.28;;;;;;;7.38;96.11;102735.22;4952927;28;20058;-72
2022/01/24 12:13:42;;;;;;;14.65;5.00;;;;;;;7.44;95.17;102736.78;4947387;28;20043;-71
2022/01/24 12:16:09;;;;;;;9.27;3.60;;;;;;;7.57;94.32;102722.72;4958712;28;20183;-72
2022/01/24 12:18:35;;;;;;;11.32;4.18;;;;;;;7.30;95.81;102729.38;4954403;28;20027;-72
2022/01/24 12:21:24;;;;;;;16.60;5.15;;;;;;;7.44;95.16;102724.19;4952550;28;20207;-73
2022/01/24 12:23:54;;;;;;;11.48;4.20;;;;;;;7.50;94.65;102727.59;4956273;28;20030;-71
2022/01/24 12:26:25;;;;;;;17.50;4.95;;;;;;;7.33;95.89;102720.00;4947896;28;20134;-73
2022/01/24 12:29:02;;;;;;;14.45;4.65;;;;;;;7.47;94.30;102704.84;4942897;28;20047;-73
2022/01/24 12:31:36;;;;;;;16.85;4.93;;;;;;;7.34;93.89;102705.50;4953220;28;20330;-72
2022/01/24 12:34:23;;;;;;;11.30;4.20;;;;;;;7.45;94.43;102703.53;4950942;28;20372;-72
2022/01/24 12:36:59;;;;;;;13.20;5.03;;;;;;;7.33;94.50;102698.56;4954714;28;20035;-73
2022/01/24 12:39:51;;;;;;;13.73;4.55;;;;;;;7.26;95.29;102700.75;4950736;28;20141;-72
2022/01/24 12:48:05;;;;;;;14.88;4.10;;;;;;;7.27;94.73;102697.00;4951818;28;20030;-73
2022/01/24 12:50:31;;;;;;;13.52;5.82;;;;;;;7.47;93.86;102702.16;4949615;28;20114;-73
2022/01/24 12:52:56;;;;;;;13.65;5.18;;;;;;;7.40;94.38;102707.06;4950819;28;20456;-73
2022/01/24 12:55:22;;;;;;;13.35;5.05;;;;;;;7.40;93.97;102703.56;4955671;28;20038;-72
2022/01/24 12:57:47;;;;;;;14.60;5.22;;;;;;;7.37;94.31;102704.94;4952419;28;20038;-74
2022/01/24 13:00:16;;;;;;;13.40;6.15;;;;;;;7.32;94.41;102700.44;4955537;28;20050;-72
2022/01/24 13:02:42;;;;;;;19.13;5.65;;;;;;;7.25;94.43;102697.28;4955954;28;20118;-73
2022/01/24 13:05:16;;;;;;;20.75;6.15;;;;;;;7.26;94.38;102687.34;4949354;28;20130;-73
2022/01/24 13:07:53;;;;;;;23.80;7.50;;;;;;;7.14;94.75;102686.94;4948406;28;20027;-72
2022/01/24 13:10:21;;;;;;;18.98;6.72;;;;;;;7.12;94.92;102700.59;4953464;28;20039;-75
2022/01/24 13:12:56;;;;;;;20.83;7.00;;;;;;;7.27;94.04;102683.59;4952320;28;20038;-72
2022/01/24 13:20:30;;;;;;;17.70;6.05;;;;;;;7.18;94.80;102680.72;4950627;28;20062;-73
2022/01/24 13:21:08;;;;;;;19.88;7.00;;;;;;;7.14;94.78;102674.31;4947983;28;20516;-72
2022/01/24 13:23:34;;;;;;;20.63;6.03;;;;;;;7.21;93.98;102679.38;4954346;28;20082;-72
2022/01/24 13:26:00;;;;;;;15.95;4.97;;;;;;;7.18;94.90;102671.91;4949355;28;20039;-72
2022/01/24 13:28:25;;;;;;;14.98;5.88;;;;;;;7.35;93.32;102676.81;4938215;28;20743;-72
2022/01/24 13:31:02;;;;;;;20.05;7.07;;;;;;;7.59;92.64;102673.09;4957449;28;20093;-73
2022/01/24 13:33:30;;;;;;;19.98;5.70;;;;;;;7.51;93.44;102675.59;4954154;28;20034;-72
2022/01/24 13:36:08;;;;;;;13.32;5.30;;;;;;;7.28;94.29;102680.63;4950323;28;20031;-74
2022/01/24 13:38:37;;;;;;;20.30;6.70;;;;;;;7.28;94.36;102680.63;4950567;28;20046;-73